sensor_id;sensor_type;location;lat;lon;timestamp;pressure;altitude;pressure_sealevel;temperature;humidity
48892;BME280;50130;52.150;5.236;2022-10-31T00:00:25;101886.0;;;13.06;93.54
48892;BME280;50130;52.150;5.236;2022-10-31T00:03:37;101888.0;;;13.01;93.85
48892;BME280;50130;52.150;5.236;2022-10-31T00:05:13;101887.0;;;12.98;94.2
48892;BME280;50130;52.150;5.236;2022-10-31T00:06:50;101887.0;;;13.07;93.98
48892;BME280;50130;52.150;5.236;2022-10-31T00:10:05;101887.0;;;13.01;94.18
48892;BME280;50130;52.150;5.236;2022-10-31T00:11:42;101887.0;;;13.01;94.94
48892;BME280;50130;52.150;5.236;2022-10-31T00:13:18;101889.0;;;13.12;94.33
48892;BME280;50130;52.150;5.236;2022-10-31T00:14:54;101893.0;;;13.03;94.27
48892;BME280;50130;52.150;5.236;2022-10-31T00:18:09;101891.0;;;13.01;94.31
48892;BME280;50130;52.150;5.236;2022-10-31T00:19:46;101888.0;;;13.1;94.17
48892;BME280;50130;52.150;5.236;2022-10-31T00:21:22;101890.0;;;13.0;94.57
48892;BME280;50130;52.150;5.236;2022-10-31T00:24:38;101894.0;;;12.97;95.09
48892;BME280;50130;52.150;5.236;2022-10-31T00:26:16;101888.0;;;13.02;94.73
48892;BME280;50130;52.150;5.236;2022-10-31T00:27:54;101892.0;;;12.97;94.63
48892;BME280;50130;52.150;5.236;2022-10-31T00:29:31;101893.0;;;13.03;94.49
48892;BME280;50130;52.150;5.236;2022-10-31T00:32:47;101897.0;;;12.94;94.43
48892;BME280;50130;52.150;5.236;2022-10-31T00:34:23;101900.0;;;12.87;94.81
48892;BME280;50130;52.150;5.236;2022-10-31T00:36:00;101901.0;;;12.93;94.85
48892;BME280;50130;52.150;5.236;2022-10-31T00:39:13;101899.0;;;12.89;94.68
48892;BME280;50130;52.150;5.236;2022-10-31T00:40:49;101892.0;;;12.9;94.45
48892;BME280;50130;52.150;5.236;2022-10-31T00:42:26;101892.0;;;13.0;94.17
48892;BME280;50130;52.150;5.236;2022-10-31T00:44:04;101897.0;;;13.0;93.77
48892;BME280;50130;52.150;5.236;2022-10-31T00:47:17;101894.0;;;12.8;94.03
48892;BME280;50130;52.150;5.236;2022-10-31T00:48:53;101894.0;;;12.81;93.86
48892;BME280;50130;52.150;5.236;2022-10-31T00:50:29;101894.0;;;12.65;94.63
48892;BME280;50130;52.150;5.236;2022-10-31T00:53:41;101899.0;;;12.74;94.6
48892;BME280;50130;52.150;5.236;2022-10-31T00:56:54;101905.0;;;12.76;94.0
48892;BME280;50130;52.150;5.236;2022-10-31T01:00:07;101909.0;;;12.76;93.9
48892;BME280;50130;52.150;5.236;2022-10-31T01:01:44;101908.0;;;12.74;93.81
48892;BME280;50130;52.150;5.236;2022-10-31T01:03:21;101905.0;;;12.68;94.14
48892;BME280;50130;52.150;5.236;2022-10-31T01:04:57;101905.0;;;12.7;94.14
48892;BME280;50130;52.150;5.236;2022-10-31T01:08:10;101900.0;;;12.76;93.69
48892;BME280;50130;52.150;5.236;2022-10-31T01:09:46;101898.0;;;12.62;93.87
48892;BME280;50130;52.150;5.236;2022-10-31T01:11:23;101903.0;;;12.61;93.65
48892;BME280;50130;52.150;5.236;2022-10-31T01:14:35;101903.0;;;12.63;93.98
48892;BME280;50130;52.150;5.236;2022-10-31T01:16:13;101895.0;;;12.62;93.51
48892;BME280;50130;52.150;5.236;2022-10-31T01:17:51;101891.0;;;12.62;93.33
48892;BME280;50130;52.150;5.236;2022-10-31T01:21:07;101884.0;;;12.47;94.15
48892;BME280;50130;52.150;5.236;2022-10-31T01:22:43;101885.0;;;12.45;94.12
48892;BME280;50130;52.150;5.236;2022-10-31T01:24:19;101883.0;;;12.4;94.23
48892;BME280;50130;52.150;5.236;2022-10-31T01:26:00;101876.0;;;12.3;94.32
48892;BME280;50130;52.150;5.236;2022-10-31T01:29:19;101873.0;;;12.31;94.29
48892;BME280;50130;52.150;5.236;2022-10-31T01:30:55;101871.0;;;12.29;94.14
48892;BME280;50130;52.150;5.236;2022-10-31T01:32:35;101872.0;;;12.24;94.5
48892;BME280;50130;52.150;5.236;2022-10-31T01:35:51;101872.0;;;12.25;94.43
48892;BME280;50130;52.150;5.236;2022-10-31T01:37:28;101866.0;;;12.15;94.53
48892;BME280;50130;52.150;5.236;2022-10-31T01:39:10;101870.0;;;12.09;94.57
48892;BME280;50130;52.150;5.236;2022-10-31T01:40:46;101872.0;;;12.26;94.1
48892;BME280;50130;52.150;5.236;2022-10-31T01:44:01;101871.0;;;12.21;93.96
48892;BME280;50130;52.150;5.236;2022-10-31T01:45:39;101870.0;;;12.18;93.78
48892;BME280;50130;52.150;5.236;2022-10-31T01:47:17;101867.0;;;12.09;93.65
48892;BME280;50130;52.150;5.236;2022-10-31T01:48:57;101867.0;;;12.03;93.58
48892;BME280;50130;52.150;5.236;2022-10-31T01:52:20;101863.0;;;12.06;93.39
48892;BME280;50130;52.150;5.236;2022-10-31T01:54:03;101859.0;;;12.08;93.66
48892;BME280;50130;52.150;5.236;2022-10-31T01:55:44;101862.0;;;12.11;92.91
48892;BME280;50130;52.150;5.236;2022-10-31T01:57:21;101862.0;;;12.0;93.02
48892;BME280;50130;52.150;5.236;2022-10-31T02:00:37;101865.0;;;11.91;93.26
48892;BME280;50130;52.150;5.236;2022-10-31T02:02:15;101856.0;;;11.85;92.98
48892;BME280;50130;52.150;5.236;2022-10-31T02:03:54;101856.0;;;11.77;93.45
48892;BME280;50130;52.150;5.236;2022-10-31T02:07:12;101855.0;;;11.65;93.22
48892;BME280;50130;52.150;5.236;2022-10-31T02:08:50;101859.0;;;11.71;93.25
48892;BME280;50130;52.150;5.236;2022-10-31T02:10:27;101859.0;;;11.58;93.77
48892;BME280;50130;52.150;5.236;2022-10-31T02:12:08;101855.0;;;11.65;93.69
48892;BME280;50130;52.150;5.236;2022-10-31T02:15:24;101861.0;;;11.55;93.32
48892;BME280;50130;52.150;5.236;2022-10-31T02:17:00;101862.0;;;11.49;93.29
48892;BME280;50130;52.150;5.236;2022-10-31T02:18:36;101855.0;;;11.49;93.14
48892;BME280;50130;52.150;5.236;2022-10-31T02:21:58;101852.0;;;11.38;93.62
48892;BME280;50130;52.150;5.236;2022-10-31T02:24:00;101857.0;;;11.35;93.52
48892;BME280;50130;52.150;5.236;2022-10-31T02:27:28;101855.0;;;11.44;92.97
48892;BME280;50130;52.150;5.236;2022-10-31T02:30:00;101855.0;;;11.36;92.66
48892;BME280;50130;52.150;5.236;2022-10-31T02:32:14;101856.0;;;11.42;92.77
48892;BME280;50130;52.150;5.236;2022-10-31T02:33:58;101855.0;;;11.25;92.91
48892;BME280;50130;52.150;5.236;2022-10-31T02:35:47;101860.0;;;11.25;92.77
48892;BME280;50130;52.150;5.236;2022-10-31T02:37:35;101853.0;;;11.34;92.61
48892;BME280;50130;52.150;5.236;2022-10-31T02:39:24;101858.0;;;11.3;92.98
48892;BME280;50130;52.150;5.236;2022-10-31T02:42:50;101857.0;;;11.24;92.44
48892;BME280;50130;52.150;5.236;2022-10-31T02:44:38;101860.0;;;11.17;92.34
48892;BME280;50130;52.150;5.236;2022-10-31T02:46:23;101859.0;;;11.21;92.18
48892;BME280;50130;52.150;5.236;2022-10-31T02:48:09;101856.0;;;11.17;92.27
48892;BME280;50130;52.150;5.236;2022-10-31T02:49:53;101859.0;;;11.2;92.18
48892;BME280;50130;52.150;5.236;2022-10-31T02:53:08;101862.0;;;11.14;92.4
48892;BME280;50130;52.150;5.236;2022-10-31T02:54:45;101860.0;;;11.13;92.1
48892;BME280;50130;52.150;5.236;2022-10-31T02:56:23;101859.0;;;11.08;91.98
48892;BME280;50130;52.150;5.236;2022-10-31T02:58:02;101858.0;;;10.94;92.21
48892;BME280;50130;52.150;5.236;2022-10-31T03:03:57;101859.0;;;10.96;92.15
48892;BME280;50130;52.150;5.236;2022-10-31T03:05:46;101855.0;;;10.91;92.11
48892;BME280;50130;52.150;5.236;2022-10-31T03:07:34;101858.0;;;10.76;92.73
48892;BME280;50130;52.150;5.236;2022-10-31T03:09:21;101862.0;;;10.74;93.15
48892;BME280;50130;52.150;5.236;2022-10-31T03:11:03;101863.0;;;10.81;92.46
48892;BME280;50130;52.150;5.236;2022-10-31T03:12:47;101856.0;;;10.76;92.53
48892;BME280;50130;52.150;5.236;2022-10-31T03:16:16;101858.0;;;10.73;92.93
48892;BME280;50130;52.150;5.236;2022-10-31T03:18:00;101864.0;;;10.73;93.05
48892;BME280;50130;52.150;5.236;2022-10-31T03:19:41;101866.0;;;10.75;92.57
48892;BME280;50130;52.150;5.236;2022-10-31T03:21:24;101864.0;;;10.81;92.59
48892;BME280;50130;52.150;5.236;2022-10-31T03:23:06;101863.0;;;10.61;93.1
48892;BME280;50130;52.150;5.236;2022-10-31T03:26:24;101865.0;;;10.57;93.39
48892;BME280;50130;52.150;5.236;2022-10-31T03:29:43;101868.0;;;10.71;93.2
48892;BME280;50130;52.150;5.236;2022-10-31T03:33:12;101867.0;;;10.65;92.96
48892;BME280;50130;52.150;5.236;2022-10-31T03:34:51;101865.0;;;10.54;93.47
48892;BME280;50130;52.150;5.236;2022-10-31T03:36:33;101863.0;;;10.5;93.45
48892;BME280;50130;52.150;5.236;2022-10-31T03:38:13;101865.0;;;10.48;93.91
48892;BME280;50130;52.150;5.236;2022-10-31T03:39:50;101870.0;;;10.46;93.7
48892;BME280;50130;52.150;5.236;2022-10-31T03:43:18;101865.0;;;10.35;93.79
48892;BME280;50130;52.150;5.236;2022-10-31T03:44:59;101865.0;;;10.44;93.67
48892;BME280;50130;52.150;5.236;2022-10-31T03:46:41;101861.0;;;10.33;93.88
48892;BME280;50130;52.150;5.236;2022-10-31T03:48:19;101866.0;;;10.25;94.12
48892;BME280;50130;52.150;5.236;2022-10-31T03:51:39;101864.0;;;10.37;93.57
48892;BME280;50130;52.150;5.236;2022-10-31T03:53:24;101866.0;;;10.35;93.64
48892;BME280;50130;52.150;5.236;2022-10-31T03:55:05;101866.0;;;10.39;93.81
48892;BME280;50130;52.150;5.236;2022-10-31T03:56:52;101865.0;;;10.44;93.88
48892;BME280;50130;52.150;5.236;2022-10-31T04:00:13;101864.0;;;10.6;93.72
48892;BME280;50130;52.150;5.236;2022-10-31T04:01:53;101865.0;;;10.59;93.07
48892;BME280;50130;52.150;5.236;2022-10-31T04:03:38;101871.0;;;10.58;92.93
48892;BME280;50130;52.150;5.236;2022-10-31T04:05:15;101869.0;;;10.5;93.27
48892;BME280;50130;52.150;5.236;2022-10-31T04:08:38;101874.0;;;10.53;93.09
48892;BME280;50130;52.150;5.236;2022-10-31T04:10:17;101871.0;;;10.49;92.89
48892;BME280;50130;52.150;5.236;2022-10-31T04:11:56;101874.0;;;10.61;92.38
48892;BME280;50130;52.150;5.236;2022-10-31T04:13:37;101873.0;;;10.53;91.93
48892;BME280;50130;52.150;5.236;2022-10-31T04:16:52;101876.0;;;10.38;92.34
48892;BME280;50130;52.150;5.236;2022-10-31T04:18:28;101873.0;;;10.27;92.71
48892;BME280;50130;52.150;5.236;2022-10-31T04:20:06;101870.0;;;10.4;92.5
48892;BME280;50130;52.150;5.236;2022-10-31T04:21:43;101869.0;;;10.31;92.3
48892;BME280;50130;52.150;5.236;2022-10-31T04:25:00;101866.0;;;10.28;92.52
48892;BME280;50130;52.150;5.236;2022-10-31T04:26:36;101865.0;;;10.18;92.94
48892;BME280;50130;52.150;5.236;2022-10-31T04:28:13;101862.0;;;10.09;93.2
48892;BME280;50130;52.150;5.236;2022-10-31T04:31:26;101855.0;;;9.99;93.51
48892;BME280;50130;52.150;5.236;2022-10-31T04:33:02;101858.0;;;10.09;93.07
48892;BME280;50130;52.150;5.236;2022-10-31T04:34:38;101855.0;;;10.06;93.1
48892;BME280;50130;52.150;5.236;2022-10-31T04:36:14;101858.0;;;10.09;92.86
48892;BME280;50130;52.150;5.236;2022-10-31T04:39:26;101859.0;;;10.01;93.03
48892;BME280;50130;52.150;5.236;2022-10-31T04:41:02;101865.0;;;10.18;92.47
48892;BME280;50130;52.150;5.236;2022-10-31T04:42:38;101862.0;;;10.1;92.54
48892;BME280;50130;52.150;5.236;2022-10-31T04:45:51;101856.0;;;10.06;93.16
48892;BME280;50130;52.150;5.236;2022-10-31T04:47:27;101856.0;;;9.98;93.65
48892;BME280;50130;52.150;5.236;2022-10-31T04:49:03;101855.0;;;9.81;93.87
48892;BME280;50130;52.150;5.236;2022-10-31T04:52:16;101855.0;;;9.75;94.72
48892;BME280;50130;52.150;5.236;2022-10-31T04:53:53;101860.0;;;9.89;94.6
48892;BME280;50130;52.150;5.236;2022-10-31T04:55:29;101861.0;;;10.06;93.68
48892;BME280;50130;52.150;5.236;2022-10-31T04:58:42;101859.0;;;9.89;93.34
48892;BME280;50130;52.150;5.236;2022-10-31T05:00:20;101862.0;;;9.75;93.88
48892;BME280;50130;52.150;5.236;2022-10-31T05:01:57;101856.0;;;9.78;93.68
48892;BME280;50130;52.150;5.236;2022-10-31T05:03:33;101856.0;;;9.8;93.5
48892;BME280;50130;52.150;5.236;2022-10-31T05:06:46;101856.0;;;9.89;93.12
48892;BME280;50130;52.150;5.236;2022-10-31T05:08:22;101855.0;;;9.93;92.85
48892;BME280;50130;52.150;5.236;2022-10-31T05:09:58;101853.0;;;9.83;92.61
48892;BME280;50130;52.150;5.236;2022-10-31T05:13:10;101853.0;;;9.96;92.55
48892;BME280;50130;52.150;5.236;2022-10-31T05:14:47;101856.0;;;9.93;92.32
48892;BME280;50130;52.150;5.236;2022-10-31T05:16:23;101853.0;;;9.99;92.29
48892;BME280;50130;52.150;5.236;2022-10-31T05:19:36;101850.0;;;10.08;92.13
48892;BME280;50130;52.150;5.236;2022-10-31T05:21:12;101853.0;;;9.89;92.55
48892;BME280;50130;52.150;5.236;2022-10-31T05:22:50;101850.0;;;9.88;93.08
48892;BME280;50130;52.150;5.236;2022-10-31T05:24:27;101848.0;;;9.89;92.29
48892;BME280;50130;52.150;5.236;2022-10-31T05:27:41;101844.0;;;9.85;92.23
48892;BME280;50130;52.150;5.236;2022-10-31T05:29:17;101845.0;;;9.72;92.46
48892;BME280;50130;52.150;5.236;2022-10-31T05:30:53;101844.0;;;9.77;92.05
48892;BME280;50130;52.150;5.236;2022-10-31T05:34:12;101844.0;;;9.8;92.08
48892;BME280;50130;52.150;5.236;2022-10-31T05:35:49;101843.0;;;9.78;92.08
48892;BME280;50130;52.150;5.236;2022-10-31T05:37:25;101835.0;;;9.74;91.62
48892;BME280;50130;52.150;5.236;2022-10-31T05:39:02;101838.0;;;9.64;92.35
48892;BME280;50130;52.150;5.236;2022-10-31T05:42:14;101837.0;;;9.64;92.18
48892;BME280;50130;52.150;5.236;2022-10-31T05:43:51;101838.0;;;9.74;91.77
48892;BME280;50130;52.150;5.236;2022-10-31T05:45:28;101840.0;;;9.61;91.75
48892;BME280;50130;52.150;5.236;2022-10-31T05:48:41;101832.0;;;9.74;91.77
48892;BME280;50130;52.150;5.236;2022-10-31T05:50:17;101831.0;;;9.69;91.61
48892;BME280;50130;52.150;5.236;2022-10-31T05:51:54;101823.0;;;9.56;92.14
48892;BME280;50130;52.150;5.236;2022-10-31T05:55:07;101825.0;;;9.57;91.89
48892;BME280;50130;52.150;5.236;2022-10-31T05:56:44;101825.0;;;9.59;91.68
48892;BME280;50130;52.150;5.236;2022-10-31T05:58:20;101824.0;;;9.53;91.72
48892;BME280;50130;52.150;5.236;2022-10-31T05:59:56;101826.0;;;9.5;91.81
48892;BME280;50130;52.150;5.236;2022-10-31T06:03:10;101821.0;;;9.52;91.87
48892;BME280;50130;52.150;5.236;2022-10-31T06:04:46;101819.0;;;9.56;91.57
48892;BME280;50130;52.150;5.236;2022-10-31T06:06:22;101823.0;;;9.44;91.81
48892;BME280;50130;52.150;5.236;2022-10-31T06:09:34;101815.0;;;9.39;91.94
48892;BME280;50130;52.150;5.236;2022-10-31T06:11:10;101810.0;;;9.28;92.71
48892;BME280;50130;52.150;5.236;2022-10-31T06:12:47;101811.0;;;9.26;93.01
48892;BME280;50130;52.150;5.236;2022-10-31T06:16:00;101811.0;;;9.23;93.0
48892;BME280;50130;52.150;5.236;2022-10-31T06:17:36;101820.0;;;9.3;92.89
48892;BME280;50130;52.150;5.236;2022-10-31T06:19:12;101816.0;;;9.41;92.4
48892;BME280;50130;52.150;5.236;2022-10-31T06:22:24;101820.0;;;9.46;92.22
48892;BME280;50130;52.150;5.236;2022-10-31T06:24:02;101821.0;;;9.35;92.12
48892;BME280;50130;52.150;5.236;2022-10-31T06:25:39;101818.0;;;9.33;92.25
48892;BME280;50130;52.150;5.236;2022-10-31T06:27:15;101818.0;;;9.32;92.12
48892;BME280;50130;52.150;5.236;2022-10-31T06:30:27;101820.0;;;9.19;92.58
48892;BME280;50130;52.150;5.236;2022-10-31T06:32:04;101823.0;;;9.22;92.84
48892;BME280;50130;52.150;5.236;2022-10-31T06:33:40;101828.0;;;9.32;92.65
48892;BME280;50130;52.150;5.236;2022-10-31T06:36:53;101826.0;;;9.31;92.42
48892;BME280;50130;52.150;5.236;2022-10-31T06:38:29;101823.0;;;9.23;92.54
48892;BME280;50130;52.150;5.236;2022-10-31T06:40:06;101830.0;;;9.23;92.64
48892;BME280;50130;52.150;5.236;2022-10-31T06:43:18;101833.0;;;9.23;92.52
48892;BME280;50130;52.150;5.236;2022-10-31T06:44:56;101832.0;;;9.14;92.99
48892;BME280;50130;52.150;5.236;2022-10-31T06:46:32;101832.0;;;9.47;91.93
48892;BME280;50130;52.150;5.236;2022-10-31T06:48:08;101830.0;;;9.34;92.19
48892;BME280;50130;52.150;5.236;2022-10-31T06:51:20;101832.0;;;9.26;92.77
48892;BME280;50130;52.150;5.236;2022-10-31T06:52:57;101828.0;;;9.43;92.51
48892;BME280;50130;52.150;5.236;2022-10-31T06:54:34;101826.0;;;9.33;92.56
48892;BME280;50130;52.150;5.236;2022-10-31T06:57:49;101825.0;;;9.24;93.2
48892;BME280;50130;52.150;5.236;2022-10-31T06:59:26;101831.0;;;9.39;92.99
48892;BME280;50130;52.150;5.236;2022-10-31T07:01:02;101837.0;;;9.48;92.99
48892;BME280;50130;52.150;5.236;2022-10-31T07:04:14;101836.0;;;9.53;93.26
48892;BME280;50130;52.150;5.236;2022-10-31T07:05:51;101834.0;;;9.69;92.89
48892;BME280;50130;52.150;5.236;2022-10-31T07:07:27;101831.0;;;9.72;92.55
48892;BME280;50130;52.150;5.236;2022-10-31T07:09:03;101832.0;;;9.73;92.59
48892;BME280;50130;52.150;5.236;2022-10-31T07:12:18;101834.0;;;9.73;93.05
48892;BME280;50130;52.150;5.236;2022-10-31T07:13:54;101837.0;;;9.76;92.91
48892;BME280;50130;52.150;5.236;2022-10-31T07:15:34;101836.0;;;9.63;93.76
48892;BME280;50130;52.150;5.236;2022-10-31T07:18:50;101835.0;;;9.65;93.71
48892;BME280;50130;52.150;5.236;2022-10-31T07:20:27;101830.0;;;9.71;93.52
48892;BME280;50130;52.150;5.236;2022-10-31T07:22:03;101832.0;;;9.76;93.49
48892;BME280;50130;52.150;5.236;2022-10-31T07:23:39;101831.0;;;9.82;93.37
48892;BME280;50130;52.150;5.236;2022-10-31T07:26:52;101835.0;;;9.92;93.09
48892;BME280;50130;52.150;5.236;2022-10-31T07:28:28;101835.0;;;9.97;92.94
48892;BME280;50130;52.150;5.236;2022-10-31T07:30:06;101846.0;;;9.98;92.87
48892;BME280;50130;52.150;5.236;2022-10-31T07:33:26;101848.0;;;10.06;92.97
48892;BME280;50130;52.150;5.236;2022-10-31T07:35:02;101847.0;;;10.13;92.84
48892;BME280;50130;52.150;5.236;2022-10-31T07:36:38;101845.0;;;10.16;92.92
48892;BME280;50130;52.150;5.236;2022-10-31T07:38:14;101847.0;;;10.22;92.95
48892;BME280;50130;52.150;5.236;2022-10-31T07:41:27;101844.0;;;10.27;92.81
48892;BME280;50130;52.150;5.236;2022-10-31T07:43:04;101846.0;;;10.19;93.4
48892;BME280;50130;52.150;5.236;2022-10-31T07:44:41;101849.0;;;10.11;94.17
48892;BME280;50130;52.150;5.236;2022-10-31T07:47:53;101851.0;;;10.33;93.43
48892;BME280;50130;52.150;5.236;2022-10-31T07:49:30;101847.0;;;10.19;93.93
48892;BME280;50130;52.150;5.236;2022-10-31T07:51:07;101852.0;;;10.23;94.05
48892;BME280;50130;52.150;5.236;2022-10-31T07:54:20;101853.0;;;10.29;93.89
48892;BME280;50130;52.150;5.236;2022-10-31T07:55:56;101856.0;;;10.31;94.18
48892;BME280;50130;52.150;5.236;2022-10-31T07:57:32;101856.0;;;10.33;94.33
48892;BME280;50130;52.150;5.236;2022-10-31T08:00:46;101856.0;;;10.39;94.6
48892;BME280;50130;52.150;5.236;2022-10-31T08:02:23;101858.0;;;10.43;94.8
48892;BME280;50130;52.150;5.236;2022-10-31T08:04:00;101863.0;;;10.49;94.72
48892;BME280;50130;52.150;5.236;2022-10-31T08:05:36;101873.0;;;10.52;94.66
48892;BME280;50130;52.150;5.236;2022-10-31T08:08:49;101873.0;;;10.61;95.26
48892;BME280;50130;52.150;5.236;2022-10-31T08:10:26;101871.0;;;10.62;95.34
48892;BME280;50130;52.150;5.236;2022-10-31T08:12:03;101871.0;;;10.66;96.02
48892;BME280;50130;52.150;5.236;2022-10-31T08:15:16;101869.0;;;10.65;96.25
48892;BME280;50130;52.150;5.236;2022-10-31T08:16:52;101867.0;;;10.73;97.02
48892;BME280;50130;52.150;5.236;2022-10-31T08:18:29;101866.0;;;10.83;97.42
48892;BME280;50130;52.150;5.236;2022-10-31T08:20:07;101866.0;;;10.93;98.62
48892;BME280;50130;52.150;5.236;2022-10-31T08:23:20;101865.0;;;11.07;98.52
48892;BME280;50130;52.150;5.236;2022-10-31T08:24:56;101863.0;;;11.18;98.51
48892;BME280;50130;52.150;5.236;2022-10-31T08:26:32;101863.0;;;11.4;99.21
48892;BME280;50130;52.150;5.236;2022-10-31T08:29:47;101861.0;;;11.53;100.0
48892;BME280;50130;52.150;5.236;2022-10-31T08:31:26;101855.0;;;11.72;100.0
48892;BME280;50130;52.150;5.236;2022-10-31T08:33:05;101855.0;;;11.76;99.72
48892;BME280;50130;52.150;5.236;2022-10-31T08:36:17;101861.0;;;11.98;100.0
48892;BME280;50130;52.150;5.236;2022-10-31T08:37:54;101861.0;;;12.2;100.0
48892;BME280;50130;52.150;5.236;2022-10-31T08:39:31;101858.0;;;12.25;100.0
48892;BME280;50130;52.150;5.236;2022-10-31T08:41:07;101857.0;;;12.35;100.0
48892;BME280;50130;52.150;5.236;2022-10-31T08:44:21;101860.0;;;12.55;100.0
48892;BME280;50130;52.150;5.236;2022-10-31T08:45:57;101861.0;;;12.62;100.0
48892;BME280;50130;52.150;5.236;2022-10-31T08:47:33;101862.0;;;12.71;100.0
48892;BME280;50130;52.150;5.236;2022-10-31T08:50:46;101863.0;;;12.95;100.0
48892;BME280;50130;52.150;5.236;2022-10-31T08:52:23;101859.0;;;13.06;100.0
48892;BME280;50130;52.150;5.236;2022-10-31T08:54:00;101851.0;;;13.04;100.0
48892;BME280;50130;52.150;5.236;2022-10-31T08:57:14;101852.0;;;13.03;100.0
48892;BME280;50130;52.150;5.236;2022-10-31T08:58:52;101843.0;;;13.04;100.0
48892;BME280;50130;52.150;5.236;2022-10-31T09:00:28;101841.0;;;13.09;100.0
48892;BME280;50130;52.150;5.236;2022-10-31T09:02:05;101837.0;;;13.1;100.0
48892;BME280;50130;52.150;5.236;2022-10-31T09:05:17;101833.0;;;13.2;100.0
48892;BME280;50130;52.150;5.236;2022-10-31T09:06:53;101830.0;;;13.36;100.0
48892;BME280;50130;52.150;5.236;2022-10-31T09:08:30;101833.0;;;13.58;100.0
48892;BME280;50130;52.150;5.236;2022-10-31T09:11:43;101830.0;;;13.85;100.0
48892;BME280;50130;52.150;5.236;2022-10-31T09:13:20;101831.0;;;13.93;100.0
48892;BME280;50130;52.150;5.236;2022-10-31T09:14:57;101830.0;;;14.07;100.0
48892;BME280;50130;52.150;5.236;2022-10-31T09:16:33;101830.0;;;14.19;100.0
48892;BME280;50130;52.150;5.236;2022-10-31T09:19:46;101821.0;;;14.17;100.0
48892;BME280;50130;52.150;5.236;2022-10-31T09:21:22;101821.0;;;14.32;100.0
48892;BME280;50130;52.150;5.236;2022-10-31T09:23:00;101811.0;;;14.29;100.0
48892;BME280;50130;52.150;5.236;2022-10-31T09:26:14;101807.0;;;14.52;100.0
48892;BME280;50130;52.150;5.236;2022-10-31T09:27:50;101805.0;;;14.58;100.0
48892;BME280;50130;52.150;5.236;2022-10-31T09:29:26;101805.0;;;14.65;100.0
48892;BME280;50130;52.150;5.236;2022-10-31T09:32:38;101805.0;;;14.95;100.0
48892;BME280;50130;52.150;5.236;2022-10-31T09:34:14;101805.0;;;15.05;100.0
48892;BME280;50130;52.150;5.236;2022-10-31T09:35:51;101802.0;;;15.12;100.0
48892;BME280;50130;52.150;5.236;2022-10-31T09:39:03;101800.0;;;15.13;100.0
48892;BME280;50130;52.150;5.236;2022-10-31T09:40:41;101798.0;;;15.29;100.0
48892;BME280;50130;52.150;5.236;2022-10-31T09:42:33;101802.0;;;15.31;99.88
48892;BME280;50130;52.150;5.236;2022-10-31T09:44:28;101805.0;;;15.44;99.72
48892;BME280;50130;52.150;5.236;2022-10-31T09:48:12;101806.0;;;15.49;98.32
48892;BME280;50130;52.150;5.236;2022-10-31T09:50:18;101807.0;;;15.51;98.42
48892;BME280;50130;52.150;5.236;2022-10-31T09:53:51;101805.0;;;15.6;98.76
48892;BME280;50130;52.150;5.236;2022-10-31T09:55:36;101803.0;;;15.56;98.67
48892;BME280;50130;52.150;5.236;2022-10-31T09:57:19;101802.0;;;15.53;99.6
48892;BME280;50130;52.150;5.236;2022-10-31T09:59:02;101801.0;;;15.56;99.93
48892;BME280;50130;52.150;5.236;2022-10-31T10:00:40;101792.0;;;15.62;99.05
48892;BME280;50130;52.150;5.236;2022-10-31T10:04:03;101788.0;;;15.64;99.15
48892;BME280;50130;52.150;5.236;2022-10-31T10:05:54;101782.0;;;15.7;99.81
48892;BME280;50130;52.150;5.236;2022-10-31T10:07:40;101782.0;;;15.73;99.56
48892;BME280;50130;52.150;5.236;2022-10-31T10:09:24;101780.0;;;15.87;99.34
48892;BME280;50130;52.150;5.236;2022-10-31T10:11:12;101783.0;;;16.0;97.58
48892;BME280;50130;52.150;5.236;2022-10-31T10:13:14;101782.0;;;16.02;97.74
48892;BME280;50130;52.150;5.236;2022-10-31T10:15:27;101782.0;;;16.03;97.23
48892;BME280;50130;52.150;5.236;2022-10-31T10:18:11;101776.0;;;15.97;97.82
48892;BME280;50130;52.150;5.236;2022-10-31T10:20:05;101780.0;;;15.98;97.47
48892;BME280;50130;52.150;5.236;2022-10-31T10:21:58;101771.0;;;16.0;97.38
48892;BME280;50130;52.150;5.236;2022-10-31T10:23:50;101766.0;;;16.12;96.53
48892;BME280;50130;52.150;5.236;2022-10-31T10:27:22;101765.0;;;16.03;95.93
48892;BME280;50130;52.150;5.236;2022-10-31T10:29:06;101768.0;;;16.07;96.66
48892;BME280;50130;52.150;5.236;2022-10-31T10:30:58;101768.0;;;16.25;94.78
48892;BME280;50130;52.150;5.236;2022-10-31T10:32:42;101767.0;;;16.27;94.95
48892;BME280;50130;52.150;5.236;2022-10-31T10:34:22;101769.0;;;16.22;95.44
48892;BME280;50130;52.150;5.236;2022-10-31T10:36:05;101764.0;;;16.32;94.56
48892;BME280;50130;52.150;5.236;2022-10-31T10:39:27;101767.0;;;16.37;95.1
48892;BME280;50130;52.150;5.236;2022-10-31T10:41:13;101768.0;;;16.37;95.75
48892;BME280;50130;52.150;5.236;2022-10-31T10:43:29;101765.0;;;16.39;96.2
48892;BME280;50130;52.150;5.236;2022-10-31T10:48:06;101766.0;;;16.48;94.5
48892;BME280;50130;52.150;5.236;2022-10-31T10:49:48;101756.0;;;16.43;95.3
48892;BME280;50130;52.150;5.236;2022-10-31T10:51:31;101745.0;;;16.43;95.72
48892;BME280;50130;52.150;5.236;2022-10-31T10:53:34;101731.0;;;16.52;94.85
48892;BME280;50130;52.150;5.236;2022-10-31T10:55:22;101720.0;;;16.5;94.56
48892;BME280;50130;52.150;5.236;2022-10-31T10:57:10;101711.0;;;16.61;93.93
48892;BME280;50130;52.150;5.236;2022-10-31T11:00:30;101705.0;;;16.5;94.23
48892;BME280;50130;52.150;5.236;2022-10-31T11:02:19;101703.0;;;16.65;93.4
48892;BME280;50130;52.150;5.236;2022-10-31T11:04:01;101703.0;;;16.64;94.42
48892;BME280;50130;52.150;5.236;2022-10-31T11:05:41;101705.0;;;16.68;94.1
48892;BME280;50130;52.150;5.236;2022-10-31T11:09:09;101693.0;;;16.68;93.86
48892;BME280;50130;52.150;5.236;2022-10-31T11:10:56;101688.0;;;16.7;93.41
48892;BME280;50130;52.150;5.236;2022-10-31T11:12:33;101682.0;;;16.68;93.45
48892;BME280;50130;52.150;5.236;2022-10-31T11:14:13;101671.0;;;16.75;93.81
48892;BME280;50130;52.150;5.236;2022-10-31T11:15:55;101665.0;;;16.71;94.14
48892;BME280;50130;52.150;5.236;2022-10-31T11:19:17;101664.0;;;16.84;93.97
48892;BME280;50130;52.150;5.236;2022-10-31T11:21:04;101667.0;;;16.88;92.57